Station Historical Data
Daily Summary for April 21, 2012 Units:  Metric    English   Both
« Previous Day
Next Day »
Daily Weekly Monthly Yearly Custom
  High: Low: Average:
Temperature: 16.3 °C 8.7 °C 10.6 °C
Dew Point: 14.3 °C 6.7 °C 9.2 °C
Humidity: 95% 86% 91%
Wind Speed: 22.5km/h 0km/h 9.7km/h
Wind Gust: 30.6km/h - -
Wind- - WSW
Pressure: 1012.8 hPa 1008 hPa -
Precipitation: 13.72 mm    
Historical Graphs
 
 
Tabular Data for April 21, 2012
Time Temperature Dew Point Pressure Wind Wind Speed Wind Gust Humidity Rainfall Rate (Hourly) Conditions
00:00 16.3 °C 14.3 °C 1008.4 hPa Calm   3.2 km/h 88% 0 mm
00:05 16.1 °C 14.1 °C 1008.4 hPa North 1.6 km/h 1.6 km/h 88% 0 mm
00:11 15.9 °C 14.1 °C 1008.4 hPa NE 1.6 km/h 4.8 km/h 89% 0 mm
00:15 15.8 °C 14.2 °C 1008.4 hPa NNE 1.6 km/h 3.2 km/h 90% 0 mm
00:20 15.7 °C 14.1 °C 1008.4 hPa North 1.6 km/h 3.2 km/h 90% 0 mm
00:26 15.6 °C 14 °C 1008.7 hPa NNW 1.6 km/h 3.2 km/h 90% 0 mm
00:31 15.5 °C 13.9 °C 1008.7 hPa NW 3.2 km/h 4.8 km/h 90% 0 mm
00:36 15.4 °C 14 °C 1008.7 hPa WNW 3.2 km/h 6.4 km/h 91% 0 mm
00:41 15.4 °C 13.9 °C 1008.7 hPa NNW 1.6 km/h 3.2 km/h 91% 0 mm
00:46 15.4 °C 13.9 °C 1008.7 hPa NNW 3.2 km/h 3.2 km/h 91% 0 mm
00:51 15.3 °C 13.9 °C 1008.7 hPa NW 3.2 km/h 3.2 km/h 91% 0 mm
00:56 15.3 °C 13.8 °C 1008.7 hPa North 1.6 km/h 3.2 km/h 91% 0 mm
01:00 15.2 °C 13.7 °C 1008.7 hPa NNE 1.6 km/h 3.2 km/h 91% 0 mm
01:01 15.2 °C 13.7 °C 1008.7 hPa NNE 1.6 km/h 3.2 km/h 91% 0 mm
01:06 15.1 °C 13.8 °C 1009 hPa North 1.6 km/h 3.2 km/h 92% 0 mm
01:11 15 °C 13.7 °C 1009 hPa Calm   1.6 km/h 92% 0 mm
01:16 14.9 °C 13.6 °C 1009 hPa WNW 3.2 km/h 3.2 km/h 92% 0 mm
01:21 14.8 °C 13.5 °C 1009 hPa NW 3.2 km/h 3.2 km/h 92% 0 mm
01:26 14.8 °C 13.7 °C 1009 hPa NW 4.8 km/h 4.8 km/h 93% 0 mm
01:30 14.9 °C 13.8 °C 1009 hPa NW 4.8 km/h 6.4 km/h 93% 0 mm
01:31 14.9 °C 13.8 °C 1009 hPa NNW 3.2 km/h 6.4 km/h 93% 0 mm
01:36 15 °C 13.9 °C 1008.7 hPa NNW 3.2 km/h 8 km/h 93% 0 mm
01:41 15 °C 13.9 °C 1008.7 hPa NE 1.6 km/h 6.4 km/h 93% 0 mm
01:46 15.1 °C 13.8 °C 1008.4 hPa NE 1.6 km/h 8 km/h 92% 0 mm
01:51 15 °C 13.7 °C 1008.4 hPa Calm   3.2 km/h 92% 0 mm
01:56 15 °C 13.7 °C 1008.4 hPa Calm   3.2 km/h 92% 0 mm
02:01 14.9 °C 13.6 °C 1008.4 hPa NNW 1.6 km/h 1.6 km/h 92% 0 mm
02:06 14.8 °C 13.5 °C 1008.4 hPa NNW 1.6 km/h 1.6 km/h 92% 0 mm
02:11 14.7 °C 13.6 °C 1008.4 hPa Calm   1.6 km/h 93% 0 mm
02:16 14.7 °C 13.6 °C 1008.4 hPa NE 1.6 km/h 1.6 km/h 93% 0 mm
02:21 14.7 °C 13.6 °C 1008.4 hPa Calm   1.6 km/h 93% 0 mm
02:26 14.7 °C 13.6 °C 1008.4 hPa NNW 1.6 km/h 3.2 km/h 93% 0 mm
02:30 14.7 °C 13.6 °C 1008.4 hPa NNW 1.6 km/h 3.2 km/h 93% 0 mm
02:32 14.7 °C 13.6 °C 1008.4 hPa NNW 3.2 km/h 3.2 km/h 93% 0 mm
02:37 14.6 °C 13.5 °C 1008.4 hPa Calm   1.6 km/h 93% 0 mm
02:42 14.6 °C 13.5 °C 1008.4 hPa NNE 1.6 km/h 3.2 km/h 93% 0 mm
02:47 14.7 °C 13.7 °C 1008 hPa NE 1.6 km/h 4.8 km/h 94% 0 mm
02:52 14.8 °C 13.8 °C 1008 hPa NNE 1.6 km/h 3.2 km/h 94% 0 mm
03:00 14.7 °C 13.6 °C 1008.4 hPa NE 1.6 km/h 6.4 km/h 93% 0 mm
03:30 14.9 °C 13.8 °C 1008 hPa NW 1.6 km/h 6.4 km/h 93% 0 mm
04:00 14.9 °C 13.7 °C 1008.4 hPa NNW 9.7 km/h 24.1 km/h 92% 0 mm
04:30 12.8 °C 11.9 °C 1008.4 hPa NW 14.5 km/h 30.6 km/h 94% 19.05 mm
05:00 11.3 °C 10.5 °C 1008.7 hPa NNW 12.9 km/h 24.1 km/h 95% 22.86 mm
05:30 10.7 °C 9.9 °C 1009 hPa NW 9.7 km/h 24.1 km/h 95% 28.7 mm
05:43 10.2 °C 9.4 °C 1009 hPa WNW 9.7 km/h 9.7 km/h 95% 2.54 mm
05:48 10.2 °C 9.4 °C 1009 hPa NW 12.9 km/h 14.5 km/h 95% 2.29 mm
05:54 10.1 °C 9.3 °C 1009.4 hPa WNW 14.5 km/h 16.1 km/h 95% 1.78 mm
05:59 9.9 °C 9.1 °C 1009.4 hPa NW 14.5 km/h 17.7 km/h 95% 1.78 mm
06:04 9.8 °C 9 °C 1009.4 hPa NW 12.9 km/h 22.5 km/h 95% 1.27 mm
06:09 9.7 °C 8.9 °C 1009.4 hPa NW 14.5 km/h 16.1 km/h 95% 1.02 mm
06:14 9.7 °C 8.9 °C 1009.4 hPa North 8 km/h 12.9 km/h 95% 1.02 mm
06:19 9.6 °C 8.8 °C 1009 hPa NNW 12.9 km/h 22.5 km/h 95% 1.27 mm
06:24 9.4 °C 8.7 °C 1009.4 hPa NW 17.7 km/h 25.7 km/h 95% 1.27 mm
06:29 9.4 °C 8.6 °C 1009.4 hPa NNW 20.9 km/h 22.5 km/h 95% 1.27 mm
06:34 9.4 °C 8.6 °C 1009.4 hPa NNW 8 km/h 20.9 km/h 95% 1.02 mm
06:39 9.3 °C 8.6 °C 1009.4 hPa NNW 14.5 km/h 19.3 km/h 95% 0 mm
06:44 9.3 °C 8.5 °C 1009.4 hPa NNW 14.5 km/h 27.4 km/h 95% 0 mm
06:49 9.2 °C 8.4 °C 1009.4 hPa NW 11.3 km/h 17.7 km/h 95% 0 mm
06:54 9.2 °C 8.3 °C 1009.4 hPa NNW 22.5 km/h 25.7 km/h 94% 0 mm
06:59 9.1 °C 8.2 °C 1009.4 hPa NNW 9.7 km/h 17.7 km/h 94% 0 mm
07:04 9.1 °C 8.2 °C 1009.4 hPa NNW 11.3 km/h 17.7 km/h 94% 0 mm
07:09 9.1 °C 8.3 °C 1009.4 hPa North 8 km/h 17.7 km/h 95% 0 mm
07:14 9.1 °C 8.3 °C 1009.7 hPa NNW 12.9 km/h 20.9 km/h 95% 0 mm
07:19 9 °C 8.1 °C 1009.7 hPa NW 16.1 km/h 20.9 km/h 94% 0 mm
07:24 8.9 °C 8.1 °C 1009.7 hPa NNW 11.3 km/h 22.5 km/h 94% 0 mm
07:29 8.9 °C 8 °C 1010 hPa NNW 17.7 km/h 22.5 km/h 94% 0 mm
07:34 8.9 °C 8 °C 1010 hPa NW 17.7 km/h 25.7 km/h 94% 0 mm
07:39 8.8 °C 7.9 °C 1010 hPa NW 11.3 km/h 19.3 km/h 94% 0 mm
07:44 8.8 °C 7.9 °C 1010 hPa NNE 16.1 km/h 17.7 km/h 94% 0 mm
07:49 8.8 °C 7.9 °C 1010 hPa NNE 16.1 km/h 17.7 km/h 94% 0 mm
07:50 8.8 °C 7.9 °C 1010 hPa NNW 8 km/h 17.7 km/h 94% 0 mm
07:55 8.8 °C 7.9 °C 1010 hPa North 12.9 km/h 19.3 km/h 94% 0 mm
08:00 8.8 °C 7.9 °C 1010 hPa NW 6.4 km/h 12.9 km/h 94% 0 mm
08:05 8.8 °C 7.9 °C 1010 hPa NNW 8 km/h 16.1 km/h 94% 0 mm
08:10 8.8 °C 7.9 °C 1010 hPa NNE 6.4 km/h 14.5 km/h 94% 0 mm
08:15 8.8 °C 7.9 °C 1009.7 hPa North 3.2 km/h 14.5 km/h 94% 0 mm
08:20 8.9 °C 8 °C 1009.7 hPa NE 4.8 km/h 14.5 km/h 94% 0 mm
08:25 8.9 °C 8 °C 1009.4 hPa North 8 km/h 11.3 km/h 94% 0 mm
08:30 8.9 °C 8 °C 1009.4 hPa NE 14.5 km/h 16.1 km/h 94% 0 mm
08:36 8.9 °C 8.1 °C 1009.4 hPa NE 3.2 km/h 12.9 km/h 94% 0 mm
08:41 9.1 °C 8.2 °C 1009 hPa North 9.7 km/h 16.1 km/h 94% 0 mm
08:46 9.1 °C 8.2 °C 1009 hPa NE 1.6 km/h 16.1 km/h 94% 0 mm
08:51 9.2 °C 8.3 °C 1008.7 hPa NNE 12.9 km/h 20.9 km/h 94% 0 mm
08:56 9.4 °C 8.4 °C 1009 hPa NNE 12.9 km/h 19.3 km/h 94% 0 mm
09:01 9.6 °C 8.7 °C 1009.4 hPa NNW 8 km/h 11.3 km/h 94% 0 mm
09:06 9.7 °C 8.8 °C 1009.7 hPa NW 9.7 km/h 12.9 km/h 94% 0 mm
09:11 9.7 °C 8.8 °C 1009.7 hPa NNW 11.3 km/h 19.3 km/h 94% 0 mm
09:16 9.8 °C 8.9 °C 1010 hPa NW 6.4 km/h 12.9 km/h 94% 0 mm
09:21 9.8 °C 8.9 °C 1010 hPa NW 8 km/h 12.9 km/h 94% 0 mm
09:26 9.8 °C 8.7 °C 1010 hPa NW 8 km/h 14.5 km/h 93% 0 mm
09:31 9.7 °C 8.7 °C 1010.4 hPa WNW 8 km/h 19.3 km/h 93% 0 mm
09:36 9.7 °C 8.8 °C 1010.7 hPa NNW 11.3 km/h 12.9 km/h 94% 0 mm
09:41 9.6 °C 8.5 °C 1010.4 hPa NNW 8 km/h 17.7 km/h 93% 0 mm
09:46 9.6 °C 8.6 °C 1010.4 hPa NNW 12.9 km/h 14.5 km/h 94% 0 mm
09:51 9.4 °C 8.4 °C 1010.4 hPa NNW 12.9 km/h 17.7 km/h 94% 0 mm
09:56 9.4 °C 8.5 °C 1010.7 hPa NNW 11.3 km/h 16.1 km/h 94% 0 mm
10:01 9.3 °C 8.4 °C 1010.7 hPa NNW 6.4 km/h 16.1 km/h 94% 0 mm
10:06 9.3 °C 8.3 °C 1010.7 hPa NNW 4.8 km/h 9.7 km/h 94% 0 mm
10:11 9.3 °C 8.4 °C 1010.7 hPa NNE 6.4 km/h 14.5 km/h 94% 0 mm
10:16 9.4 °C 8.4 °C 1010.7 hPa NW 11.3 km/h 16.1 km/h 94% 0 mm
10:21 9.4 °C 8.4 °C 1010.7 hPa NNE 12.9 km/h 19.3 km/h 94% 0 mm
10:26 9.3 °C 8.4 °C 1010.7 hPa North 14.5 km/h 14.5 km/h 94% 0 mm
10:31 9.3 °C 8.4 °C 1011.1 hPa NW 12.9 km/h 16.1 km/h 94% 0 mm
10:36 9.4 °C 8.4 °C 1010.7 hPa NNW 12.9 km/h 14.5 km/h 94% 0 mm
10:41 9.4 °C 8.4 °C 1011.1 hPa North 8 km/h 11.3 km/h 94% 0 mm
10:46 9.4 °C 8.5 °C 1011.1 hPa NNE 8 km/h 11.3 km/h 94% 0 mm
10:52 9.5 °C 8.6 °C 1011.1 hPa NE 4.8 km/h 9.7 km/h 94% 0 mm
10:58 9.6 °C 8.6 °C 1011.1 hPa NE 9.7 km/h 11.3 km/h 94% 0 mm
11:04 9.6 °C 8.6 °C 1011.1 hPa North 1.6 km/h 8 km/h 94% 0 mm
11:09 9.6 °C 8.6 °C 1011.1 hPa NE 6.4 km/h 11.3 km/h 94% 0 mm
11:14 9.7 °C 8.8 °C 1011.1 hPa NNE 9.7 km/h 11.3 km/h 94% 0 mm
11:19 9.7 °C 8.8 °C 1010.7 hPa NW 8 km/h 17.7 km/h 94% 0 mm
11:24 9.8 °C 8.9 °C 1010.7 hPa NW 6.4 km/h 12.9 km/h 94% 0 mm
11:29 9.8 °C 8.9 °C 1010.7 hPa North 17.7 km/h 20.9 km/h 94% 0 mm
11:34 9.9 °C 9 °C 1010.4 hPa NNW 11.3 km/h 17.7 km/h 94% 0 mm
11:39 10 °C 9.1 °C 1010.4 hPa NNW 14.5 km/h 19.3 km/h 94% 0 mm
11:44 10.1 °C 9.2 °C 1010.4 hPa NNW 11.3 km/h 14.5 km/h 94% 0 mm
11:49 10.1 °C 9.1 °C 1010.7 hPa NW 11.3 km/h 16.1 km/h 93% 0 mm
11:54 10.2 °C 9.1 °C 1010.4 hPa NW 8 km/h 17.7 km/h 93% 0 mm
11:59 10.4 °C 9.3 °C 1010.4 hPa NNW 4.8 km/h 16.1 km/h 93% 0 mm
12:04 10.7 °C 9.6 °C 1010.7 hPa NNW 14.5 km/h 14.5 km/h 93% 0 mm
12:09 10.7 °C 9.4 °C 1010.7 hPa NW 17.7 km/h 17.7 km/h 92% 0 mm
12:14 10.4 °C 9.2 °C 1010.4 hPa North 16.1 km/h 22.5 km/h 92% 0 mm
12:19 10.4 °C 9.3 °C 1010.4 hPa NW 11.3 km/h 14.5 km/h 93% 0 mm
12:24 10.6 °C 9.4 °C 1010.7 hPa NNE 6.4 km/h 16.1 km/h 93% 0 mm
12:29 10.6 °C 9.4 °C 1010.7 hPa NW 11.3 km/h 16.1 km/h 92% 0 mm
12:34 10.7 °C 9.4 °C 1010.7 hPa NW 11.3 km/h 16.1 km/h 92% 0 mm
12:40 10.8 °C 9.4 °C 1010.7 hPa North 8 km/h 17.7 km/h 91% 0 mm
12:46 10.9 °C 9.6 °C 1010.7 hPa NW 6.4 km/h 16.1 km/h 91% 0 mm
12:51 11.1 °C 9.6 °C 1010.7 hPa NNE 4.8 km/h 14.5 km/h 90% 0 mm
12:56 11.2 °C 9.7 °C 1010.7 hPa NNW 9.7 km/h 11.3 km/h 90% 0 mm
13:01 11.3 °C 9.8 °C 1010.7 hPa NNW 9.7 km/h 12.9 km/h 90% 0 mm
13:06 11.4 °C 9.8 °C 1010.7 hPa NW 9.7 km/h 14.5 km/h 90% 0 mm
13:12 11.3 °C 9.7 °C 1011.1 hPa NNE 19.3 km/h 19.3 km/h 90% 0 mm
13:17 11.2 °C 9.7 °C 1011.1 hPa NW 6.4 km/h 14.5 km/h 90% 0 mm
13:23 11.2 °C 9.6 °C 1011.1 hPa NW 12.9 km/h 17.7 km/h 90% 0 mm
13:27 11.3 °C 9.7 °C 1011.1 hPa NNW 11.3 km/h 19.3 km/h 90% 0 mm
13:33 11.1 °C 9.6 °C 1011.4 hPa NW 8 km/h 16.1 km/h 90% 0 mm
13:38 10.8 °C 9.4 °C 1011.4 hPa NNW 11.3 km/h 17.7 km/h 91% 0 mm
13:43 10.6 °C 9.3 °C 1011.4 hPa NNW 12.9 km/h 16.1 km/h 92% 0 mm
13:48 10.4 °C 9.2 °C 1011.1 hPa NNW 16.1 km/h 20.9 km/h 92% 0 mm
13:53 10.3 °C 9.1 °C 1011.4 hPa NNW 16.1 km/h 20.9 km/h 92% 0 mm
13:58 10.3 °C 9.1 °C 1011.1 hPa NNW 12.9 km/h 20.9 km/h 92% 0 mm
14:03 10.5 °C 9.3 °C 1011.1 hPa NNE 16.1 km/h 16.1 km/h 92% 0 mm
14:08 10.7 °C 9.3 °C 1011.1 hPa NW 12.9 km/h 16.1 km/h 91% 0 mm
14:13 10.8 °C 9.3 °C 1011.1 hPa North 9.7 km/h 14.5 km/h 90% 0 mm
14:18 10.8 °C 9.2 °C 1011.4 hPa NW 11.3 km/h 20.9 km/h 90% 0 mm
14:23 10.4 °C 8.9 °C 1011.4 hPa NW 8 km/h 20.9 km/h 90% 0 mm
14:28 10.3 °C 9.1 °C 1011.4 hPa NW 12.9 km/h 12.9 km/h 92% 0 mm
14:33 10.2 °C 8.8 °C 1011.4 hPa NW 11.3 km/h 16.1 km/h 91% 0 mm
14:38 10.2 °C 8.9 °C 1011.4 hPa NW 14.5 km/h 17.7 km/h 92% 0 mm
14:43 10.2 °C 8.9 °C 1011.4 hPa WNW 12.9 km/h 20.9 km/h 92% 0 mm
14:48 10.2 °C 8.9 °C 1011.1 hPa NNW 8 km/h 17.7 km/h 92% 0 mm
14:53 10.2 °C 9 °C 1011.1 hPa NNW 11.3 km/h 19.3 km/h 92% 0 mm
14:58 10.4 °C 9.2 °C 1011.4 hPa NW 12.9 km/h 17.7 km/h 92% 0 mm
15:03 10.5 °C 9.1 °C 1011.1 hPa North 17.7 km/h 20.9 km/h 91% 0 mm
15:09 10.9 °C 9.5 °C 1011.1 hPa North 17.7 km/h 20.9 km/h 91% 0 mm
15:14 11.1 °C 9.5 °C 1011.1 hPa NNW 8 km/h 14.5 km/h 90% 0 mm
15:19 11 °C 9.3 °C 1010.7 hPa North 11.3 km/h 22.5 km/h 89% 0 mm
15:24 10.6 °C 9.1 °C 1010.7 hPa NNW 12.9 km/h 19.3 km/h 90% 0 mm
15:29 10.2 °C 8.7 °C 1011.1 hPa NNW 22.5 km/h 22.5 km/h 90% 0 mm
15:34 9.9 °C 8.6 °C 1010.7 hPa NNE 16.1 km/h 22.5 km/h 91% 0 mm
15:39 9.9 °C 8.7 °C 1010.7 hPa NW 9.7 km/h 16.1 km/h 92% 0 mm
15:44 10 °C 8.9 °C 1011.1 hPa NNW 12.9 km/h 17.7 km/h 93% 0 mm
15:49 10.3 °C 8.9 °C 1011.1 hPa North 14.5 km/h 14.5 km/h 91% 0 mm
15:54 10.7 °C 9.1 °C 1010.7 hPa NNW 6.4 km/h 20.9 km/h 90% 0 mm
15:59 10.7 °C 9 °C 1010.7 hPa North 6.4 km/h 12.9 km/h 89% 0 mm
16:04 10.8 °C 9.1 °C 1010.7 hPa North 6.4 km/h 11.3 km/h 89% 0 mm
16:09 10.8 °C 8.9 °C 1010.7 hPa North 11.3 km/h 12.9 km/h 88% 0 mm
16:14 10.8 °C 9.1 °C 1010.7 hPa NNE 6.4 km/h 12.9 km/h 89% 0 mm
16:19 10.7 °C 8.8 °C 1010.7 hPa North 6.4 km/h 19.3 km/h 88% 0 mm
16:24 10.6 °C 8.7 °C 1010.7 hPa NNW 6.4 km/h 19.3 km/h 88% 0 mm
16:29 10.7 °C 9 °C 1010.7 hPa NNW 12.9 km/h 14.5 km/h 89% 0 mm
16:34 10.8 °C 9.2 °C 1011.1 hPa NNW 8 km/h 9.7 km/h 90% 0 mm
16:40 10.8 °C 8.9 °C 1010.7 hPa NW 9.7 km/h 19.3 km/h 88% 0 mm
16:45 10.7 °C 8.8 °C 1010.7 hPa NNE 12.9 km/h 20.9 km/h 88% 0 mm
16:50 10.7 °C 8.8 °C 1010.7 hPa NW 11.3 km/h 14.5 km/h 88% 0 mm
16:55 10.7 °C 8.8 °C 1010.7 hPa NNW 9.7 km/h 14.5 km/h 88% 0 mm
17:00 10.6 °C 8.8 °C 1010.7 hPa NW 9.7 km/h 11.3 km/h 89% 0 mm
17:05 10.5 °C 8.9 °C 1010.7 hPa North 8 km/h 16.1 km/h 90% 0 mm
17:10 10.6 °C 9.1 °C 1010.4 hPa NNW 8 km/h 11.3 km/h 90% 0 mm
17:15 10.5 °C 8.8 °C 1010.7 hPa NNW 9.7 km/h 14.5 km/h 89% 0 mm
17:20 10.6 °C 8.8 °C 1010.4 hPa NNW 16.1 km/h 19.3 km/h 89% 0 mm
17:25 10.4 °C 8.7 °C 1010.4 hPa NNW 14.5 km/h 24.1 km/h 89% 0 mm
17:30 10.4 °C 8.7 °C 1010.4 hPa NW 11.3 km/h 20.9 km/h 89% 0 mm
17:35 10.4 °C 8.7 °C 1010.4 hPa NNW 9.7 km/h 20.9 km/h 89% 0 mm
17:40 10.4 °C 8.5 °C 1010.4 hPa NNW 12.9 km/h 20.9 km/h 88% 0 mm
17:45 10.4 °C 8.7 °C 1010.7 hPa North 9.7 km/h 12.9 km/h 89% 0 mm
17:50 10.5 °C 8.8 °C 1010.4 hPa NW 8 km/h 19.3 km/h 89% 0 mm
17:55 10.5 °C 8.8 °C 1010.4 hPa NNW 11.3 km/h 17.7 km/h 89% 0 mm
18:00 10.4 °C 8.7 °C 1010.4 hPa North 8 km/h 16.1 km/h 89% 0 mm
18:05 10.4 °C 8.7 °C 1010.4 hPa North 12.9 km/h 20.9 km/h 89% 0 mm
18:10 10.4 °C 8.7 °C 1010.4 hPa NNW 11.3 km/h 22.5 km/h 89% 0 mm
18:15 10.4 °C 8.7 °C 1010.4 hPa NW 9.7 km/h 12.9 km/h 89% 0 mm
18:16 10.4 °C 8.8 °C 1010.4 hPa NNW 9.7 km/h 12.9 km/h 90% 0 mm
18:21 10.3 °C 8.6 °C 1010.4 hPa WNW 12.9 km/h 19.3 km/h 89% 0 mm
18:26 10.2 °C 8.5 °C 1010.4 hPa NW 19.3 km/h 19.3 km/h 89% 0 mm
18:31 10.1 °C 8.4 °C 1010.4 hPa NW 16.1 km/h 16.1 km/h 89% 0 mm
18:36 10.1 °C 8.5 °C 1010.4 hPa NW 9.7 km/h 14.5 km/h 90% 0 mm
18:41 10 °C 8.4 °C 1010.4 hPa NNW 11.3 km/h 19.3 km/h 90% 0 mm
18:46 9.8 °C 8.3 °C 1010.4 hPa NNE 20.9 km/h 20.9 km/h 90% 0 mm
18:52 9.8 °C 8.2 °C 1010.4 hPa NNW 11.3 km/h 20.9 km/h 90% 0 mm
18:57 9.7 °C 8.2 °C 1010.4 hPa NNW 11.3 km/h 17.7 km/h 90% 0 mm
19:02 9.7 °C 8.3 °C 1010.7 hPa NNW 11.3 km/h 14.5 km/h 91% 0 mm
19:07 9.6 °C 8.1 °C 1010.7 hPa NNW 11.3 km/h 16.1 km/h 90% 0 mm
19:12 9.6 °C 8.2 °C 1010.7 hPa North 11.3 km/h 16.1 km/h 91% 0 mm
19:17 9.5 °C 8.1 °C 1010.7 hPa NNE 9.7 km/h 27.4 km/h 91% 0 mm
19:22 9.4 °C 8.1 °C 1010.7 hPa North 12.9 km/h 22.5 km/h 91% 0 mm
19:27 9.4 °C 8 °C 1010.7 hPa NNE 9.7 km/h 25.7 km/h 91% 0 mm
19:32 9.3 °C 7.9 °C 1010.7 hPa NNW 14.5 km/h 17.7 km/h 91% 0 mm
19:37 9.3 °C 7.9 °C 1010.7 hPa NNW 11.3 km/h 16.1 km/h 91% 0 mm
19:42 9.3 °C 7.9 °C 1010.7 hPa North 3.2 km/h 12.9 km/h 91% 0 mm
19:47 9.2 °C 8 °C 1010.7 hPa NNW 11.3 km/h 11.3 km/h 92% 0 mm
19:52 9.1 °C 7.9 °C 1010.7 hPa NW 9.7 km/h 16.1 km/h 92% 0 mm
19:57 9.1 °C 7.7 °C 1011.1 hPa NNW 14.5 km/h 22.5 km/h 91% 0 mm
20:02 9.1 °C 7.7 °C 1011.1 hPa NW 6.4 km/h 17.7 km/h 91% 0 mm
20:07 9 °C 7.6 °C 1011.4 hPa NW 14.5 km/h 16.1 km/h 91% 0 mm
20:12 8.9 °C 7.6 °C 1011.4 hPa NNW 6.4 km/h 14.5 km/h 91% 0 mm
20:18 8.9 °C 7.7 °C 1011.4 hPa North 17.7 km/h 24.1 km/h 92% 0 mm
20:23 8.8 °C 7.6 °C 1011.7 hPa NW 11.3 km/h 17.7 km/h 92% 0 mm
20:28 8.8 °C 7.6 °C 1011.7 hPa NNW 6.4 km/h 11.3 km/h 92% 0 mm
20:33 8.8 °C 7.6 °C 1011.7 hPa NNW 12.9 km/h 14.5 km/h 92% 0 mm
20:38 8.8 °C 7.6 °C 1012.1 hPa NW 8 km/h 16.1 km/h 92% 0 mm
20:43 8.8 °C 7.6 °C 1012.1 hPa NNW 22.5 km/h 27.4 km/h 92% 0 mm
20:45 8.8 °C 7.4 °C 1012.1 hPa North 16.1 km/h 27.4 km/h 91% 0 mm
20:50 8.7 °C 7.3 °C 1012.1 hPa North 19.3 km/h 22.5 km/h 91% 0 mm
20:52 8.7 °C 7.2 °C 1012.1 hPa NW 11.3 km/h 22.5 km/h 90% 0 mm
20:58 8.7 °C 7.3 °C 1012.4 hPa NW 12.9 km/h 17.7 km/h 91% 0 mm
21:03 8.7 °C 7.2 °C 1012.4 hPa North 17.7 km/h 17.7 km/h 90% 0 mm
21:08 8.7 °C 7.2 °C 1012.4 hPa North 11.3 km/h 20.9 km/h 90% 0 mm
21:13 8.8 °C 7.2 °C 1012.4 hPa WNW 4.8 km/h 16.1 km/h 90% 0 mm
21:18 8.8 °C 7.1 °C 1012.4 hPa NNE 16.1 km/h 16.1 km/h 89% 0 mm
21:23 8.8 °C 6.9 °C 1012.4 hPa NNW 6.4 km/h 14.5 km/h 88% 0 mm
21:28 8.9 °C 7 °C 1012.4 hPa NNW 9.7 km/h 19.3 km/h 88% 0 mm
21:33 8.9 °C 7 °C 1012.4 hPa NW 9.7 km/h 16.1 km/h 88% 0 mm
21:38 8.9 °C 7 °C 1012.4 hPa North 12.9 km/h 12.9 km/h 88% 0 mm
21:43 8.9 °C 6.8 °C 1012.4 hPa NNE 14.5 km/h 17.7 km/h 87% 0 mm
21:48 8.9 °C 6.8 °C 1012.4 hPa NNW 14.5 km/h 14.5 km/h 87% 0 mm
21:53 8.9 °C 6.9 °C 1012.4 hPa NNE 9.7 km/h 16.1 km/h 87% 0 mm
21:58 8.9 °C 6.9 °C 1012.4 hPa North 16.1 km/h 16.1 km/h 87% 0 mm
22:03 8.9 °C 6.9 °C 1012.8 hPa North 11.3 km/h 12.9 km/h 87% 0 mm
22:08 8.9 °C 6.9 °C 1012.8 hPa NNE 6.4 km/h 19.3 km/h 87% 0 mm
22:13 8.9 °C 6.9 °C 1012.8 hPa NW 8 km/h 16.1 km/h 87% 0 mm
22:18 8.9 °C 6.9 °C 1012.8 hPa NNE 14.5 km/h 22.5 km/h 87% 0 mm
22:23 8.9 °C 6.7 °C 1012.8 hPa NW 6.4 km/h 12.9 km/h 86% 0 mm
22:28 8.9 °C 6.9 °C 1012.8 hPa NNE 6.4 km/h 11.3 km/h 87% 0 mm
22:34 8.9 °C 6.9 °C 1012.4 hPa NNW 4.8 km/h 12.9 km/h 87% 0 mm
22:39 8.9 °C 6.9 °C 1012.4 hPa West 4.8 km/h 9.7 km/h 87% 0 mm
22:44 8.9 °C 6.9 °C 1012.4 hPa NNW 9.7 km/h 14.5 km/h 87% 0 mm
22:49 8.9 °C 6.9 °C 1012.4 hPa NNW 17.7 km/h 22.5 km/h 87% 0 mm
22:54 8.9 °C 6.9 °C 1012.4 hPa North 4.8 km/h 11.3 km/h 87% 0 mm
22:59 8.9 °C 6.9 °C 1012.4 hPa NNW 9.7 km/h 12.9 km/h 87% 0 mm
23:04 8.9 °C 6.9 °C 1012.4 hPa NW 8 km/h 14.5 km/h 87% 0 mm
23:09 8.9 °C 6.9 °C 1012.4 hPa NNW 9.7 km/h 17.7 km/h 87% 0 mm
23:14 8.9 °C 6.8 °C 1012.4 hPa NNW 14.5 km/h 16.1 km/h 87% 0 mm
23:19 8.9 °C 7 °C 1012.4 hPa NW 11.3 km/h 14.5 km/h 88% 0 mm
23:24 8.8 °C 6.9 °C 1012.4 hPa NW 8 km/h 11.3 km/h 88% 0 mm
23:29 8.8 °C 6.9 °C 1012.4 hPa NNW 8 km/h 16.1 km/h 88% 0 mm
23:34 8.8 °C 6.9 °C 1012.4 hPa North 9.7 km/h 11.3 km/h 88% 0 mm
23:39 8.7 °C 6.8 °C 1012.4 hPa NW 11.3 km/h 16.1 km/h 88% 0 mm
23:44 8.7 °C 6.8 °C 1012.4 hPa NW 4.8 km/h 14.5 km/h 88% 0 mm
23:49 8.8 °C 6.7 °C 1012.4 hPa NW 9.7 km/h 12.9 km/h 87% 0 mm
23:54 8.8 °C 6.7 °C 1012.4 hPa NNW 6.4 km/h 12.9 km/h 87% 0 mm
23:59 8.8 °C 6.7 °C 1012.4 hPa NNW 3.2 km/h 11.3 km/h 87% 0 mm
Compliments of Weather Underground